sensor_id;sensor_type;location;lat;lon;timestamp;temperature;humidity
820;DHT22;392;48.838;2.322;2022-10-19T00:02:23;17.10;95.10
820;DHT22;392;48.838;2.322;2022-10-19T00:04:51;17.10;94.70
820;DHT22;392;48.838;2.322;2022-10-19T00:07:18;17.10;94.60
820;DHT22;392;48.838;2.322;2022-10-19T00:09:45;17.10;94.50
820;DHT22;392;48.838;2.322;2022-10-19T00:12:14;17.10;94.50
820;DHT22;392;48.838;2.322;2022-10-19T00:14:42;17.10;94.30
820;DHT22;392;48.838;2.322;2022-10-19T00:17:09;17.10;94.30
820;DHT22;392;48.838;2.322;2022-10-19T00:19:38;17.10;94.20
820;DHT22;392;48.838;2.322;2022-10-19T00:22:06;17.10;94.10
820;DHT22;392;48.838;2.322;2022-10-19T00:24:33;17.00;94.10
820;DHT22;392;48.838;2.322;2022-10-19T00:27:00;17.00;94.10
820;DHT22;392;48.838;2.322;2022-10-19T00:29:28;17.00;94.20
820;DHT22;392;48.838;2.322;2022-10-19T00:31:55;17.00;94.30
820;DHT22;392;48.838;2.322;2022-10-19T00:34:22;17.00;94.40
820;DHT22;392;48.838;2.322;2022-10-19T00:36:51;16.90;94.40
820;DHT22;392;48.838;2.322;2022-10-19T00:39:19;16.90;94.40
820;DHT22;392;48.838;2.322;2022-10-19T00:41:47;16.90;94.50
820;DHT22;392;48.838;2.322;2022-10-19T00:47:27;16.90;94.50
820;DHT22;392;48.838;2.322;2022-10-19T00:49:57;16.90;94.60
820;DHT22;392;48.838;2.322;2022-10-19T00:52:27;16.90;94.70
820;DHT22;392;48.838;2.322;2022-10-19T00:54:55;16.90;94.70
820;DHT22;392;48.838;2.322;2022-10-19T00:57:26;16.90;94.70
820;DHT22;392;48.838;2.322;2022-10-19T00:59:55;16.90;94.80
820;DHT22;392;48.838;2.322;2022-10-19T01:02:23;16.90;94.80
820;DHT22;392;48.838;2.322;2022-10-19T01:04:51;16.90;94.80
820;DHT22;392;48.838;2.322;2022-10-19T01:07:20;16.90;95.10
820;DHT22;392;48.838;2.322;2022-10-19T01:09:49;16.80;94.80
820;DHT22;392;48.838;2.322;2022-10-19T01:12:34;16.90;94.90
820;DHT22;392;48.838;2.322;2022-10-19T01:15:19;16.80;94.90
820;DHT22;392;48.838;2.322;2022-10-19T01:17:57;16.80;94.90
820;DHT22;392;48.838;2.322;2022-10-19T01:27:35;16.80;94.90
820;DHT22;392;48.838;2.322;2022-10-19T01:30:16;16.80;94.90
820;DHT22;392;48.838;2.322;2022-10-19T01:33:09;16.80;94.90
820;DHT22;392;48.838;2.322;2022-10-19T01:35:50;16.80;94.90
820;DHT22;392;48.838;2.322;2022-10-19T01:38:33;16.80;94.90
820;DHT22;392;48.838;2.322;2022-10-19T01:41:10;16.80;94.90
820;DHT22;392;48.838;2.322;2022-10-19T01:43:44;16.70;95.10
820;DHT22;392;48.838;2.322;2022-10-19T01:46:18;16.70;94.90
820;DHT22;392;48.838;2.322;2022-10-19T01:48:54;16.70;94.90
820;DHT22;392;48.838;2.322;2022-10-19T01:51:30;16.70;95.00
820;DHT22;392;48.838;2.322;2022-10-19T01:54:02;16.70;95.00
820;DHT22;392;48.838;2.322;2022-10-19T01:56:33;16.70;94.90
820;DHT22;392;48.838;2.322;2022-10-19T01:59:05;16.70;94.90
820;DHT22;392;48.838;2.322;2022-10-19T02:01:37;16.70;95.00
820;DHT22;392;48.838;2.322;2022-10-19T02:04:07;16.70;95.00
820;DHT22;392;48.838;2.322;2022-10-19T02:06:36;16.70;95.10
820;DHT22;392;48.838;2.322;2022-10-19T02:09:04;16.70;95.10
820;DHT22;392;48.838;2.322;2022-10-19T02:11:34;16.70;95.10
820;DHT22;392;48.838;2.322;2022-10-19T02:14:10;16.60;95.10
820;DHT22;392;48.838;2.322;2022-10-19T02:16:44;16.60;95.10
820;DHT22;392;48.838;2.322;2022-10-19T02:19:14;16.60;95.10
820;DHT22;392;48.838;2.322;2022-10-19T02:21:42;16.60;95.20
820;DHT22;392;48.838;2.322;2022-10-19T02:24:10;16.60;95.40
820;DHT22;392;48.838;2.322;2022-10-19T02:26:38;16.50;95.50
820;DHT22;392;48.838;2.322;2022-10-19T02:29:07;16.50;95.60
820;DHT22;392;48.838;2.322;2022-10-19T02:31:35;16.50;95.70
820;DHT22;392;48.838;2.322;2022-10-19T02:34:04;16.50;95.60
820;DHT22;392;48.838;2.322;2022-10-19T02:36:32;16.60;95.60
820;DHT22;392;48.838;2.322;2022-10-19T02:39:00;16.50;95.40
820;DHT22;392;48.838;2.322;2022-10-19T02:41:33;16.60;95.50
820;DHT22;392;48.838;2.322;2022-10-19T02:44:05;16.50;95.40
820;DHT22;392;48.838;2.322;2022-10-19T02:46:39;16.50;95.30
820;DHT22;392;48.838;2.322;2022-10-19T02:49:11;16.50;95.30
820;DHT22;392;48.838;2.322;2022-10-19T02:51:56;16.60;95.50
820;DHT22;392;48.838;2.322;2022-10-19T02:54:25;16.50;95.30
820;DHT22;392;48.838;2.322;2022-10-19T02:56:52;16.50;95.30
820;DHT22;392;48.838;2.322;2022-10-19T02:59:20;16.50;95.40
820;DHT22;392;48.838;2.322;2022-10-19T03:01:48;16.40;95.60
820;DHT22;392;48.838;2.322;2022-10-19T03:04:17;16.40;95.50
820;DHT22;392;48.838;2.322;2022-10-19T03:06:44;16.40;95.50
820;DHT22;392;48.838;2.322;2022-10-19T03:09:12;16.50;95.60
820;DHT22;392;48.838;2.322;2022-10-19T03:11:39;16.50;95.60
820;DHT22;392;48.838;2.322;2022-10-19T03:14:07;16.50;95.50
820;DHT22;392;48.838;2.322;2022-10-19T03:16:34;16.40;95.40
820;DHT22;392;48.838;2.322;2022-10-19T03:19:02;16.40;95.40
820;DHT22;392;48.838;2.322;2022-10-19T03:21:32;16.40;95.40
820;DHT22;392;48.838;2.322;2022-10-19T03:24:00;16.40;95.50
820;DHT22;392;48.838;2.322;2022-10-19T03:26:28;16.40;95.50
820;DHT22;392;48.838;2.322;2022-10-19T03:28:55;16.40;95.60
820;DHT22;392;48.838;2.322;2022-10-19T03:31:22;16.40;95.60
820;DHT22;392;48.838;2.322;2022-10-19T03:33:51;16.30;95.60
820;DHT22;392;48.838;2.322;2022-10-19T03:36:21;16.40;95.70
820;DHT22;392;48.838;2.322;2022-10-19T03:38:53;16.40;95.70
820;DHT22;392;48.838;2.322;2022-10-19T03:41:23;16.30;95.80
820;DHT22;392;48.838;2.322;2022-10-19T03:43:52;16.30;96.00
820;DHT22;392;48.838;2.322;2022-10-19T03:46:20;16.30;96.00
820;DHT22;392;48.838;2.322;2022-10-19T03:48:48;16.30;96.00
820;DHT22;392;48.838;2.322;2022-10-19T03:51:17;16.30;96.00
820;DHT22;392;48.838;2.322;2022-10-19T03:53:46;16.30;96.00
820;DHT22;392;48.838;2.322;2022-10-19T03:56:16;16.30;96.00
820;DHT22;392;48.838;2.322;2022-10-19T03:58:46;16.30;96.00
820;DHT22;392;48.838;2.322;2022-10-19T04:01:16;16.30;96.00
820;DHT22;392;48.838;2.322;2022-10-19T04:03:44;16.20;96.00
820;DHT22;392;48.838;2.322;2022-10-19T04:06:14;16.30;96.20
820;DHT22;392;48.838;2.322;2022-10-19T04:08:44;16.30;96.20
820;DHT22;392;48.838;2.322;2022-10-19T04:11:17;16.20;96.00
820;DHT22;392;48.838;2.322;2022-10-19T04:13:47;16.20;96.10
820;DHT22;392;48.838;2.322;2022-10-19T04:16:16;16.20;96.10
820;DHT22;392;48.838;2.322;2022-10-19T04:18:44;16.20;96.30
820;DHT22;392;48.838;2.322;2022-10-19T04:21:20;16.20;96.40
820;DHT22;392;48.838;2.322;2022-10-19T04:23:49;16.20;96.40
820;DHT22;392;48.838;2.322;2022-10-19T04:26:18;16.20;96.50
820;DHT22;392;48.838;2.322;2022-10-19T04:28:45;16.20;96.50
820;DHT22;392;48.838;2.322;2022-10-19T04:31:14;16.20;96.60
820;DHT22;392;48.838;2.322;2022-10-19T04:33:42;16.20;96.60
820;DHT22;392;48.838;2.322;2022-10-19T04:36:11;16.20;96.60
820;DHT22;392;48.838;2.322;2022-10-19T04:38:38;16.20;96.60
820;DHT22;392;48.838;2.322;2022-10-19T04:41:08;16.20;96.60
820;DHT22;392;48.838;2.322;2022-10-19T04:43:38;16.20;96.60
820;DHT22;392;48.838;2.322;2022-10-19T04:46:07;16.20;96.60
820;DHT22;392;48.838;2.322;2022-10-19T04:48:37;16.20;96.50
820;DHT22;392;48.838;2.322;2022-10-19T04:51:05;16.20;96.50
820;DHT22;392;48.838;2.322;2022-10-19T04:53:34;16.20;96.50
820;DHT22;392;48.838;2.322;2022-10-19T04:56:04;16.20;96.40
820;DHT22;392;48.838;2.322;2022-10-19T04:58:32;16.20;96.40
820;DHT22;392;48.838;2.322;2022-10-19T05:01:07;16.20;96.30
820;DHT22;392;48.838;2.322;2022-10-19T05:03:35;16.20;96.30
820;DHT22;392;48.838;2.322;2022-10-19T05:06:03;16.10;96.30
820;DHT22;392;48.838;2.322;2022-10-19T05:08:32;16.10;96.40
820;DHT22;392;48.838;2.322;2022-10-19T05:11:00;16.10;96.30
820;DHT22;392;48.838;2.322;2022-10-19T05:13:30;16.10;96.30
820;DHT22;392;48.838;2.322;2022-10-19T05:15:59;16.00;96.60
820;DHT22;392;48.838;2.322;2022-10-19T05:18:29;15.90;97.00
820;DHT22;392;48.838;2.322;2022-10-19T05:21:02;15.90;97.50
820;DHT22;392;48.838;2.322;2022-10-19T05:23:29;15.80;98.00
820;DHT22;392;48.838;2.322;2022-10-19T05:26:01;15.80;98.10
820;DHT22;392;48.838;2.322;2022-10-19T05:28:29;15.80;98.40
820;DHT22;392;48.838;2.322;2022-10-19T05:31:04;15.80;98.50
820;DHT22;392;48.838;2.322;2022-10-19T05:33:37;15.80;98.50
820;DHT22;392;48.838;2.322;2022-10-19T05:36:14;15.80;98.50
820;DHT22;392;48.838;2.322;2022-10-19T05:38:42;15.80;98.70
820;DHT22;392;48.838;2.322;2022-10-19T05:41:10;15.80;98.60
820;DHT22;392;48.838;2.322;2022-10-19T05:43:38;15.80;98.70
820;DHT22;392;48.838;2.322;2022-10-19T05:46:07;15.80;98.60
820;DHT22;392;48.838;2.322;2022-10-19T05:48:37;15.80;98.50
820;DHT22;392;48.838;2.322;2022-10-19T05:51:09;15.90;99.70
820;DHT22;392;48.838;2.322;2022-10-19T05:53:40;16.40;99.90
820;DHT22;392;48.838;2.322;2022-10-19T05:56:10;16.60;99.90
820;DHT22;392;48.838;2.322;2022-10-19T05:58:39;16.80;99.60
820;DHT22;392;48.838;2.322;2022-10-19T06:01:07;17.00;97.30
820;DHT22;392;48.838;2.322;2022-10-19T06:03:36;17.10;95.40
820;DHT22;392;48.838;2.322;2022-10-19T06:06:04;17.10;93.10
820;DHT22;392;48.838;2.322;2022-10-19T06:08:32;17.10;92.60
820;DHT22;392;48.838;2.322;2022-10-19T06:11:04;17.10;92.40
820;DHT22;392;48.838;2.322;2022-10-19T06:13:32;17.40;93.10
820;DHT22;392;48.838;2.322;2022-10-19T06:16:03;17.60;91.30
820;DHT22;392;48.838;2.322;2022-10-19T06:18:31;17.80;88.80
820;DHT22;392;48.838;2.322;2022-10-19T06:21:02;17.90;84.70
820;DHT22;392;48.838;2.322;2022-10-19T06:23:31;17.50;80.20
820;DHT22;392;48.838;2.322;2022-10-19T06:26:01;17.20;82.70
820;DHT22;392;48.838;2.322;2022-10-19T06:28:28;16.90;87.10
820;DHT22;392;48.838;2.322;2022-10-19T06:30:56;16.60;88.60
820;DHT22;392;48.838;2.322;2022-10-19T06:33:24;16.50;91.00
820;DHT22;392;48.838;2.322;2022-10-19T06:35:52;16.40;91.70
820;DHT22;392;48.838;2.322;2022-10-19T06:38:21;16.20;92.20
820;DHT22;392;48.838;2.322;2022-10-19T06:40:49;16.10;93.20
820;DHT22;392;48.838;2.322;2022-10-19T06:43:16;16.00;93.80
820;DHT22;392;48.838;2.322;2022-10-19T06:45:43;16.00;94.60
820;DHT22;392;48.838;2.322;2022-10-19T06:48:11;16.00;95.00
820;DHT22;392;48.838;2.322;2022-10-19T06:50:38;16.10;95.40
820;DHT22;392;48.838;2.322;2022-10-19T06:53:05;16.00;94.80
820;DHT22;392;48.838;2.322;2022-10-19T06:55:35;16.00;94.80
820;DHT22;392;48.838;2.322;2022-10-19T06:58:02;15.90;94.80
820;DHT22;392;48.838;2.322;2022-10-19T07:00:30;15.90;95.00
820;DHT22;392;48.838;2.322;2022-10-19T07:02:58;15.90;95.30
820;DHT22;392;48.838;2.322;2022-10-19T07:05:25;15.90;95.60
820;DHT22;392;48.838;2.322;2022-10-19T07:07:53;15.90;95.60
820;DHT22;392;48.838;2.322;2022-10-19T07:10:20;15.90;95.90
820;DHT22;392;48.838;2.322;2022-10-19T07:12:49;16.00;95.80
820;DHT22;392;48.838;2.322;2022-10-19T07:15:16;16.00;95.50
820;DHT22;392;48.838;2.322;2022-10-19T07:17:43;16.10;95.40
820;DHT22;392;48.838;2.322;2022-10-19T07:20:10;16.10;94.60
820;DHT22;392;48.838;2.322;2022-10-19T07:22:38;16.10;94.10
820;DHT22;392;48.838;2.322;2022-10-19T07:25:05;16.20;94.10
820;DHT22;392;48.838;2.322;2022-10-19T07:27:34;16.30;94.10
820;DHT22;392;48.838;2.322;2022-10-19T07:30:09;16.40;92.80
820;DHT22;392;48.838;2.322;2022-10-19T07:32:37;16.40;92.20
820;DHT22;392;48.838;2.322;2022-10-19T07:35:05;16.50;92.10
820;DHT22;392;48.838;2.322;2022-10-19T07:37:33;16.60;92.50
820;DHT22;392;48.838;2.322;2022-10-19T07:40:00;16.80;91.70
820;DHT22;392;48.838;2.322;2022-10-19T07:42:28;16.90;90.40
820;DHT22;392;48.838;2.322;2022-10-19T07:44:56;16.80;88.80
820;DHT22;392;48.838;2.322;2022-10-19T07:47:25;16.90;88.90
820;DHT22;392;48.838;2.322;2022-10-19T07:49:52;16.90;88.90
820;DHT22;392;48.838;2.322;2022-10-19T07:52:19;17.00;88.80
820;DHT22;392;48.838;2.322;2022-10-19T07:54:47;17.10;87.90
820;DHT22;392;48.838;2.322;2022-10-19T07:57:15;17.20;87.40
820;DHT22;392;48.838;2.322;2022-10-19T07:59:42;17.20;86.20
820;DHT22;392;48.838;2.322;2022-10-19T08:02:13;17.20;85.40
820;DHT22;392;48.838;2.322;2022-10-19T08:04:43;17.20;84.90
820;DHT22;392;48.838;2.322;2022-10-19T08:07:11;17.30;85.00
820;DHT22;392;48.838;2.322;2022-10-19T08:09:38;17.40;84.10
820;DHT22;392;48.838;2.322;2022-10-19T08:12:06;17.40;83.90
820;DHT22;392;48.838;2.322;2022-10-19T08:14:34;17.50;83.80
820;DHT22;392;48.838;2.322;2022-10-19T08:17:01;17.60;83.40
820;DHT22;392;48.838;2.322;2022-10-19T08:19:29;17.60;82.70
820;DHT22;392;48.838;2.322;2022-10-19T08:21:58;17.70;82.20
820;DHT22;392;48.838;2.322;2022-10-19T08:24:25;17.80;81.50
820;DHT22;392;48.838;2.322;2022-10-19T08:26:52;17.80;80.30
820;DHT22;392;48.838;2.322;2022-10-19T08:29:20;17.90;80.30
820;DHT22;392;48.838;2.322;2022-10-19T08:31:48;17.90;79.30
820;DHT22;392;48.838;2.322;2022-10-19T08:34:15;18.00;79.30
820;DHT22;392;48.838;2.322;2022-10-19T08:36:43;18.00;79.30
820;DHT22;392;48.838;2.322;2022-10-19T08:39:12;18.10;78.50
820;DHT22;392;48.838;2.322;2022-10-19T08:41:52;18.20;78.00
820;DHT22;392;48.838;2.322;2022-10-19T08:44:44;18.30;77.60
820;DHT22;392;48.838;2.322;2022-10-19T08:47:29;18.40;75.90
820;DHT22;392;48.838;2.322;2022-10-19T08:50:13;18.50;75.80
820;DHT22;392;48.838;2.322;2022-10-19T08:52:46;18.60;73.90
820;DHT22;392;48.838;2.322;2022-10-19T08:55:18;18.60;72.70
820;DHT22;392;48.838;2.322;2022-10-19T08:57:53;18.60;72.50
820;DHT22;392;48.838;2.322;2022-10-19T09:00:34;18.60;72.30
820;DHT22;392;48.838;2.322;2022-10-19T09:03:14;18.60;72.30
820;DHT22;392;48.838;2.322;2022-10-19T09:05:49;18.60;72.80
820;DHT22;392;48.838;2.322;2022-10-19T09:08:20;18.60;73.50
820;DHT22;392;48.838;2.322;2022-10-19T09:10:50;18.60;72.20
820;DHT22;392;48.838;2.322;2022-10-19T09:13:26;18.60;72.40
820;DHT22;392;48.838;2.322;2022-10-19T09:15:59;18.60;72.60
820;DHT22;392;48.838;2.322;2022-10-19T09:18:28;18.60;73.10
820;DHT22;392;48.838;2.322;2022-10-19T09:20:59;18.60;73.20
820;DHT22;392;48.838;2.322;2022-10-19T09:23:35;18.70;73.40
820;DHT22;392;48.838;2.322;2022-10-19T09:26:12;18.70;72.20
820;DHT22;392;48.838;2.322;2022-10-19T09:28:46;18.70;71.40
820;DHT22;392;48.838;2.322;2022-10-19T09:31:21;18.70;72.00
820;DHT22;392;48.838;2.322;2022-10-19T09:33:56;18.80;72.00
820;DHT22;392;48.838;2.322;2022-10-19T09:36:33;18.80;71.90
820;DHT22;392;48.838;2.322;2022-10-19T09:39:02;18.90;71.60
820;DHT22;392;48.838;2.322;2022-10-19T09:41:31;18.90;70.90
820;DHT22;392;48.838;2.322;2022-10-19T09:43:59;18.90;71.00
820;DHT22;392;48.838;2.322;2022-10-19T09:46:34;18.90;71.20
820;DHT22;392;48.838;2.322;2022-10-19T09:49:05;18.90;71.10
820;DHT22;392;48.838;2.322;2022-10-19T09:51:44;18.80;71.10
820;DHT22;392;48.838;2.322;2022-10-19T09:54:32;18.80;72.10
820;DHT22;392;48.838;2.322;2022-10-19T09:57:03;18.90;72.30
820;DHT22;392;48.838;2.322;2022-10-19T09:59:35;19.00;71.30
820;DHT22;392;48.838;2.322;2022-10-19T10:02:14;19.00;70.10
820;DHT22;392;48.838;2.322;2022-10-19T10:04:53;19.00;69.70
820;DHT22;392;48.838;2.322;2022-10-19T10:07:26;19.00;70.70
820;DHT22;392;48.838;2.322;2022-10-19T10:09:59;19.10;69.50
820;DHT22;392;48.838;2.322;2022-10-19T10:12:28;19.10;69.60
820;DHT22;392;48.838;2.322;2022-10-19T10:14:56;19.20;69.80
820;DHT22;392;48.838;2.322;2022-10-19T10:17:28;19.20;69.10
820;DHT22;392;48.838;2.322;2022-10-19T10:20:17;19.30;68.50
820;DHT22;392;48.838;2.322;2022-10-19T10:22:53;19.30;68.00
820;DHT22;392;48.838;2.322;2022-10-19T10:25:25;19.30;67.90
820;DHT22;392;48.838;2.322;2022-10-19T10:27:58;19.30;68.20
820;DHT22;392;48.838;2.322;2022-10-19T10:30:31;19.30;68.00
820;DHT22;392;48.838;2.322;2022-10-19T10:33:00;19.40;67.50
820;DHT22;392;48.838;2.322;2022-10-19T10:35:31;19.40;66.50
820;DHT22;392;48.838;2.322;2022-10-19T10:38:06;19.50;66.90
820;DHT22;392;48.838;2.322;2022-10-19T10:40:35;19.50;65.70
820;DHT22;392;48.838;2.322;2022-10-19T10:43:08;19.60;65.80
820;DHT22;392;48.838;2.322;2022-10-19T10:45:44;19.70;65.70
820;DHT22;392;48.838;2.322;2022-10-19T10:48:23;19.80;64.70
820;DHT22;392;48.838;2.322;2022-10-19T10:50:54;20.00;64.40
820;DHT22;392;48.838;2.322;2022-10-19T10:53:34;20.10;63.00
820;DHT22;392;48.838;2.322;2022-10-19T10:56:04;20.20;60.80
820;DHT22;392;48.838;2.322;2022-10-19T10:58:41;20.30;60.00
820;DHT22;392;48.838;2.322;2022-10-19T11:01:18;20.50;58.50
820;DHT22;392;48.838;2.322;2022-10-19T11:03:51;20.50;57.20
820;DHT22;392;48.838;2.322;2022-10-19T11:06:23;20.60;57.20
820;DHT22;392;48.838;2.322;2022-10-19T11:08:58;20.60;56.30
820;DHT22;392;48.838;2.322;2022-10-19T11:11:35;20.70;55.80
820;DHT22;392;48.838;2.322;2022-10-19T11:14:21;20.80;55.30
820;DHT22;392;48.838;2.322;2022-10-19T11:16:54;20.80;54.90
820;DHT22;392;48.838;2.322;2022-10-19T11:19:25;20.90;54.30
820;DHT22;392;48.838;2.322;2022-10-19T11:22:03;21.10;53.80
820;DHT22;392;48.838;2.322;2022-10-19T11:24:45;21.20;52.60
820;DHT22;392;48.838;2.322;2022-10-19T11:27:31;21.20;51.30
820;DHT22;392;48.838;2.322;2022-10-19T11:30:10;21.20;51.60
820;DHT22;392;48.838;2.322;2022-10-19T11:32:45;21.10;52.50
820;DHT22;392;48.838;2.322;2022-10-19T11:35:41;21.10;53.40
820;DHT22;392;48.838;2.322;2022-10-19T11:38:32;21.10;52.90
820;DHT22;392;48.838;2.322;2022-10-19T11:41:11;21.20;52.60
820;DHT22;392;48.838;2.322;2022-10-19T11:43:54;21.20;52.00
820;DHT22;392;48.838;2.322;2022-10-19T11:46:35;21.30;52.20
820;DHT22;392;48.838;2.322;2022-10-19T11:49:17;21.40;51.30
820;DHT22;392;48.838;2.322;2022-10-19T11:51:58;21.60;50.00
820;DHT22;392;48.838;2.322;2022-10-19T11:54:41;21.70;49.80
820;DHT22;392;48.838;2.322;2022-10-19T11:57:17;21.90;48.70
820;DHT22;392;48.838;2.322;2022-10-19T11:59:57;22.20;47.50
820;DHT22;392;48.838;2.322;2022-10-19T12:03:01;22.40;46.10
820;DHT22;392;48.838;2.322;2022-10-19T12:05:45;22.90;43.90
820;DHT22;392;48.838;2.322;2022-10-19T12:08:29;23.20;41.00
820;DHT22;392;48.838;2.322;2022-10-19T12:11:12;23.30;40.40
820;DHT22;392;48.838;2.322;2022-10-19T12:13:53;23.30;40.20
820;DHT22;392;48.838;2.322;2022-10-19T12:16:28;23.20;41.00
820;DHT22;392;48.838;2.322;2022-10-19T12:19:03;23.20;41.10
820;DHT22;392;48.838;2.322;2022-10-19T12:21:36;23.20;40.20
820;DHT22;392;48.838;2.322;2022-10-19T12:24:11;23.30;40.90
820;DHT22;392;48.838;2.322;2022-10-19T12:26:41;23.40;39.40
820;DHT22;392;48.838;2.322;2022-10-19T12:29:14;23.50;39.10
820;DHT22;392;48.838;2.322;2022-10-19T12:31:44;23.60;38.50
820;DHT22;392;48.838;2.322;2022-10-19T12:34:22;23.50;38.60
820;DHT22;392;48.838;2.322;2022-10-19T12:36:59;23.40;39.10
820;DHT22;392;48.838;2.322;2022-10-19T12:39:35;23.30;39.80
820;DHT22;392;48.838;2.322;2022-10-19T12:42:16;23.20;40.00
820;DHT22;392;48.838;2.322;2022-10-19T12:45:13;23.20;40.30
820;DHT22;392;48.838;2.322;2022-10-19T12:48:14;23.20;40.00
820;DHT22;392;48.838;2.322;2022-10-19T12:51:11;23.30;39.50
820;DHT22;392;48.838;2.322;2022-10-19T12:53:42;23.20;39.90
820;DHT22;392;48.838;2.322;2022-10-19T12:56:18;23.10;40.30
820;DHT22;392;48.838;2.322;2022-10-19T12:58:53;23.10;40.40
820;DHT22;392;48.838;2.322;2022-10-19T13:01:26;23.30;39.80
820;DHT22;392;48.838;2.322;2022-10-19T13:04:08;23.70;39.10
820;DHT22;392;48.838;2.322;2022-10-19T13:06:40;24.20;37.30
820;DHT22;392;48.838;2.322;2022-10-19T13:09:21;24.80;35.40
820;DHT22;392;48.838;2.322;2022-10-19T13:12:28;25.70;32.70
820;DHT22;392;48.838;2.322;2022-10-19T13:25:21;27.20;26.90
820;DHT22;392;48.838;2.322;2022-10-19T13:27:54;27.30;26.80
820;DHT22;392;48.838;2.322;2022-10-19T13:30:57;27.50;26.50
820;DHT22;392;48.838;2.322;2022-10-19T13:33:49;27.40;26.00
820;DHT22;392;48.838;2.322;2022-10-19T13:36:19;27.30;26.30
820;DHT22;392;48.838;2.322;2022-10-19T13:39:12;27.20;26.50
820;DHT22;392;48.838;2.322;2022-10-19T13:41:58;27.40;26.50
820;DHT22;392;48.838;2.322;2022-10-19T13:44:28;27.40;26.10
820;DHT22;392;48.838;2.322;2022-10-19T13:47:15;27.00;26.80
820;DHT22;392;48.838;2.322;2022-10-19T13:53:02;26.70;27.80
820;DHT22;392;48.838;2.322;2022-10-19T13:55:55;26.50;27.90
820;DHT22;392;48.838;2.322;2022-10-19T14:05:24;26.30;28.30
820;DHT22;392;48.838;2.322;2022-10-19T14:08:05;26.10;28.90
820;DHT22;392;48.838;2.322;2022-10-19T14:10:37;26.10;29.30
820;DHT22;392;48.838;2.322;2022-10-19T14:13:13;26.10;29.20
820;DHT22;392;48.838;2.322;2022-10-19T14:15:50;26.00;29.20
820;DHT22;392;48.838;2.322;2022-10-19T14:18:23;25.80;30.00
820;DHT22;392;48.838;2.322;2022-10-19T14:20:56;25.60;30.50
820;DHT22;392;48.838;2.322;2022-10-19T14:23:26;25.40;31.20
820;DHT22;392;48.838;2.322;2022-10-19T14:25:56;25.20;31.90
820;DHT22;392;48.838;2.322;2022-10-19T14:28:28;25.00;32.70
820;DHT22;392;48.838;2.322;2022-10-19T14:30:58;24.80;33.20
820;DHT22;392;48.838;2.322;2022-10-19T14:33:27;24.60;34.20
820;DHT22;392;48.838;2.322;2022-10-19T14:35:56;24.30;35.50
820;DHT22;392;48.838;2.322;2022-10-19T14:38:28;24.00;36.60
820;DHT22;392;48.838;2.322;2022-10-19T14:40:59;23.80;38.20
820;DHT22;392;48.838;2.322;2022-10-19T14:43:31;23.60;39.60
820;DHT22;392;48.838;2.322;2022-10-19T14:46:12;23.40;40.80
820;DHT22;392;48.838;2.322;2022-10-19T14:48:42;23.20;41.50
820;DHT22;392;48.838;2.322;2022-10-19T14:51:20;23.10;42.70
820;DHT22;392;48.838;2.322;2022-10-19T14:53:57;22.90;43.70
820;DHT22;392;48.838;2.322;2022-10-19T14:56:31;22.80;44.60
820;DHT22;392;48.838;2.322;2022-10-19T14:59:03;22.80;45.00
820;DHT22;392;48.838;2.322;2022-10-19T15:01:33;22.70;45.70
820;DHT22;392;48.838;2.322;2022-10-19T15:04:01;22.60;46.20
820;DHT22;392;48.838;2.322;2022-10-19T15:06:31;22.50;46.50
820;DHT22;392;48.838;2.322;2022-10-19T15:09:04;22.40;47.40
820;DHT22;392;48.838;2.322;2022-10-19T15:11:37;22.30;48.10
820;DHT22;392;48.838;2.322;2022-10-19T15:14:12;22.30;48.70
820;DHT22;392;48.838;2.322;2022-10-19T15:16:43;22.30;49.10
820;DHT22;392;48.838;2.322;2022-10-19T15:19:18;22.30;48.80
820;DHT22;392;48.838;2.322;2022-10-19T15:22:14;22.30;49.20
820;DHT22;392;48.838;2.322;2022-10-19T15:24:55;22.20;49.90
820;DHT22;392;48.838;2.322;2022-10-19T15:27:30;22.20;50.30
820;DHT22;392;48.838;2.322;2022-10-19T15:30:02;22.10;50.70
820;DHT22;392;48.838;2.322;2022-10-19T15:32:34;22.00;51.20
820;DHT22;392;48.838;2.322;2022-10-19T15:35:10;22.00;52.40
820;DHT22;392;48.838;2.322;2022-10-19T15:37:42;22.00;51.70
820;DHT22;392;48.838;2.322;2022-10-19T15:40:12;21.90;52.10
820;DHT22;392;48.838;2.322;2022-10-19T15:42:44;21.80;52.90
820;DHT22;392;48.838;2.322;2022-10-19T15:45:32;21.70;53.20
820;DHT22;392;48.838;2.322;2022-10-19T15:48:28;21.70;53.50
820;DHT22;392;48.838;2.322;2022-10-19T15:51:33;21.60;54.10
820;DHT22;392;48.838;2.322;2022-10-19T15:54:03;21.60;54.80
820;DHT22;392;48.838;2.322;2022-10-19T15:56:35;21.50;55.00
820;DHT22;392;48.838;2.322;2022-10-19T15:59:09;21.50;55.30
820;DHT22;392;48.838;2.322;2022-10-19T16:01:40;21.40;55.60
820;DHT22;392;48.838;2.322;2022-10-19T16:04:08;21.40;56.20
820;DHT22;392;48.838;2.322;2022-10-19T16:06:38;21.30;56.50
820;DHT22;392;48.838;2.322;2022-10-19T16:09:07;21.30;57.10
820;DHT22;392;48.838;2.322;2022-10-19T16:11:40;21.30;57.30
820;DHT22;392;48.838;2.322;2022-10-19T16:14:08;21.20;57.60
820;DHT22;392;48.838;2.322;2022-10-19T16:16:35;21.20;57.90
820;DHT22;392;48.838;2.322;2022-10-19T16:19:04;21.20;58.40
820;DHT22;392;48.838;2.322;2022-10-19T16:21:34;21.20;58.80
820;DHT22;392;48.838;2.322;2022-10-19T16:24:02;21.10;59.10
820;DHT22;392;48.838;2.322;2022-10-19T16:26:29;21.10;59.40
820;DHT22;392;48.838;2.322;2022-10-19T16:28:58;21.00;59.90
820;DHT22;392;48.838;2.322;2022-10-19T16:31:26;21.00;60.40
820;DHT22;392;48.838;2.322;2022-10-19T16:33:54;20.90;60.90
820;DHT22;392;48.838;2.322;2022-10-19T16:36:22;20.90;61.50
820;DHT22;392;48.838;2.322;2022-10-19T16:38:50;20.90;61.60
820;DHT22;392;48.838;2.322;2022-10-19T16:41:17;20.90;62.00
820;DHT22;392;48.838;2.322;2022-10-19T16:43:44;20.80;62.30
820;DHT22;392;48.838;2.322;2022-10-19T16:46:13;20.80;62.70
820;DHT22;392;48.838;2.322;2022-10-19T16:48:41;20.80;63.10
820;DHT22;392;48.838;2.322;2022-10-19T16:51:28;20.80;63.60
820;DHT22;392;48.838;2.322;2022-10-19T16:54:00;20.70;64.00
820;DHT22;392;48.838;2.322;2022-10-19T16:56:30;20.70;64.50
820;DHT22;392;48.838;2.322;2022-10-19T16:58:59;20.70;64.90
820;DHT22;392;48.838;2.322;2022-10-19T17:01:29;20.70;65.30
820;DHT22;392;48.838;2.322;2022-10-19T17:03:57;20.60;66.10
820;DHT22;392;48.838;2.322;2022-10-19T17:06:27;20.50;66.90
820;DHT22;392;48.838;2.322;2022-10-19T17:08:56;20.50;68.00
820;DHT22;392;48.838;2.322;2022-10-19T17:11:25;20.50;68.50
820;DHT22;392;48.838;2.322;2022-10-19T17:13:55;20.40;69.30
820;DHT22;392;48.838;2.322;2022-10-19T17:16:26;20.30;70.00
820;DHT22;392;48.838;2.322;2022-10-19T17:18:54;20.30;70.40
820;DHT22;392;48.838;2.322;2022-10-19T17:21:24;20.30;71.00
820;DHT22;392;48.838;2.322;2022-10-19T17:23:55;20.30;71.20
820;DHT22;392;48.838;2.322;2022-10-19T17:26:24;20.30;71.40
820;DHT22;392;48.838;2.322;2022-10-19T17:28:53;20.20;71.50
820;DHT22;392;48.838;2.322;2022-10-19T17:31:21;20.20;72.10
820;DHT22;392;48.838;2.322;2022-10-19T17:33:49;20.10;72.30
820;DHT22;392;48.838;2.322;2022-10-19T17:36:18;20.10;72.30
820;DHT22;392;48.838;2.322;2022-10-19T17:38:47;20.10;72.60
820;DHT22;392;48.838;2.322;2022-10-19T17:41:18;20.10;72.60